Nearby METAR Reports

 

KCLM - Port Angeles, Washington, USA
Distance from station: W 17mi, 27km
Updated: Fri, 15-Dec-2017 8:53pm PST
Clear
Clear
 Wind from W
Wind: W 9 mph , 15 km/h
Temperature: 43°F , 6°C
Wind Chill: 38°F , 3°C
Dew Point: 36°F , 2°C
Humidity: 76%
Barometer: 30.23 inHg , 1023.7 hPa
Clouds: Clear
Visibility: 10 miles , 16 km
2017/12/16 04:53 KCLM 160453Z AUTO 27008KT 10SM CLR 06/02 A3023 RMK AO2 SLP239 T00560022
CWQK - Race Rocks Autob, British Columbia, Canada
Distance from station: NW 23mi, 36km
Updated: Fri, 15-Dec-2017 8:00pm PST

 Wind from W
Wind: W 26 mph , 43 km/h
Temperature: 48°F , 9°C
Wind Chill: 40°F , 4°C
Dew Point: 43°F , 6°C
Humidity: 82%
2017/12/16 04:00 CWQK 160400Z AUTO 26023KT 09/06 RMK AO1 PK WND 26028/0314 SLP226 T00850059 53012
 
KNUW - Whidbey Is. Nas, Washington, USA
Distance from station: NE 28mi, 45km
Updated: Fri, 15-Dec-2017 8:56pm PST
Shallow fog, Partly cloudy
Shallow fog, Partly cloudy
 Wind from E
Wind: E 7 mph , 11 km/h
Temperature: 41°F , 5°C
Wind Chill: 36°F , 2°C
Dew Point: 39°F , 4°C
Humidity: 93%
Barometer: 30.27 inHg , 1025.1 hPa
Summary: Shallow Fog
Clouds: Partly cloudy
Visibility: 8 miles , 13 km
Cloud details: Few Clouds 3700 ft
Few Clouds 4600 ft
Partly cloudy 6500 ft
Partly cloudy 25000 ft
2017/12/16 04:56 KNUW 160456Z 10006KT 8SM MIFG FEW037 FEW046 SCT065 SCT250 05/04 A3027 RMK AO2 SLP250 T00500044 $
KFHR - Friday Harbor, Washington, USA
Distance from station: N 29mi, 46km
Updated: Fri, 15-Dec-2017 8:53pm PST
Mostly cloudy
Mostly cloudy
 Wind from SSW
Wind: SSW 3 mph , 6 km/h
Temperature: 37°F , 3°C
Dew Point: 37°F , 3°C
Humidity: 100%
Barometer: 30.23 inHg , 1023.7 hPa
Clouds: Mostly cloudy
Visibility: 7 miles , 11 km
Cloud details: Few Clouds 2600 ft
Mostly cloudy 4700 ft
Mostly cloudy 5500 ft
2017/12/16 04:53 KFHR 160453Z AUTO 20003KT 7SM FEW026 BKN047 BKN055 03/03 A3023 RMK AO2 SLP237 T00330033 $
 
KBVS - Burlington/Mt V, Washington, USA
Distance from station: NE 41mi, 66km
Updated: Fri, 15-Dec-2017 8:55pm PST
Fog, Overcast
Fog, Overcast
 Wind from calm
Wind: Calm
Temperature: 36°F , 2°C
Dew Point: 36°F , 2°C
Humidity: 100%
Barometer: 30.23 inHg , 1023.7 hPa
Summary: Fog
Clouds: Overcast
Visibility: 1/2 mile , 0.8 km
Cloud details: Overcast 200 ft
2017/12/16 04:55 KBVS 160455Z AUTO 00000KT 1/2SM FG OVC002 02/02 A3023 RMK A01
KPAE - Everett, Washington, USA
Distance from station: ESE 42mi, 67km
Updated: Fri, 15-Dec-2017 9:00pm PST
Light rain, Nearby fog, Overcast
Light rain, Nearby fog, Overcast
 Wind from SSE
Wind: SSE 3 mph , 6 km/h
Temperature: 37°F , 3°C
Dew Point: 37°F , 3°C
Humidity: 100%
Barometer: 30.24 inHg , 1024 hPa
Summary: Light rain, Nearby fog
Clouds: Overcast
Visibility: 4 miles , 6 km
Cloud details: Mostly cloudy 2400 ft
Overcast 3400 ft
2017/12/16 05:00 KPAE 160500Z AUTO 15003KT 4SM -RA VCFG BKN024 OVC034 03/03 A3024 RMK AO2 P0000 T00330028
 
KORS - Eastsound/Orcas, Washington, USA
Distance from station: NNE 42mi, 68km
Updated: Fri, 15-Dec-2017 8:55pm PST
Clear
Clear
 Wind from S
Wind: S 7 mph , 11 km/h
Temperature: 41°F , 5°C
Wind Chill: 36°F , 2°C
Dew Point: 41°F , 5°C
Humidity: 100%
Barometer: 30.22 inHg , 1023.4 hPa
Clouds: Clear
Visibility: 10 miles , 16 km
2017/12/16 04:55 KORS 160455Z AUTO 17006KT 10SM CLR 05/05 A3022 RMK AO2
KAWO - Arlington Muni, Washington, USA
Distance from station: E 45mi, 72km
Updated: Fri, 15-Dec-2017 8:56pm PST
Partly cloudy
Partly cloudy
 Wind from SSE
Wind: SSE 5 mph , 7 km/h
Temperature: 37°F , 3°C
Wind Chill: 33°F , 1°C
Dew Point: 37°F , 3°C
Humidity: 100%
Barometer: 30.25 inHg , 1024.4 hPa
Clouds: Partly cloudy
Visibility: 7 miles , 11 km
Cloud details: Few Clouds 3900 ft
Partly cloudy 7500 ft
2017/12/16 04:56 KAWO 160456Z AUTO 16004KT 7SM FEW039 SCT075 03/03 A3025 RMK AO2 RAE00 SLP250 P0000 T00330028
 
KPWT - Bremerton Ntnl, Washington, USA
Distance from station: SSE 46mi, 73km
Updated: Fri, 15-Dec-2017 8:56pm PST
Fog, Overcast
Fog, Overcast
 Wind from calm
Wind: Calm
Temperature: 39°F , 4°C
Dew Point: 39°F , 4°C
Humidity: 100%
Barometer: 30.24 inHg , 1024 hPa
Summary: Fog
Clouds: Overcast
Visibility: 1/2 mile , 0.8 km
Cloud details: Overcast 300 ft
2017/12/16 04:56 KPWT 160456Z AUTO 00000KT 1/2SM FG OVC003 04/04 A3024 RMK AO2 SLP259 T00440044